sensor_id;sensor_type;location;lat;lon;timestamp;pressure;altitude;pressure_sealevel;temperature;humidity
62978;BME280;49073;42.352;23.808;2023-10-09T00:01:08;95064.34;;;18.25;54.11
62978;BME280;49073;42.352;23.808;2023-10-09T00:04:17;95067.78;;;18.26;54.41
62978;BME280;49073;42.352;23.808;2023-10-09T00:07:18;95064.72;;;18.31;54.02
62978;BME280;49073;42.352;23.808;2023-10-09T00:10:19;95067.75;;;18.37;53.85
62978;BME280;49073;42.352;23.808;2023-10-09T00:13:24;95068.94;;;18.25;54.41
62978;BME280;49073;42.352;23.808;2023-10-09T00:16:33;95087.13;;;18.13;55.09
62978;BME280;49073;42.352;23.808;2023-10-09T00:19:35;95093.22;;;18.25;54.45
62978;BME280;49073;42.352;23.808;2023-10-09T00:22:37;95088.25;;;18.20;54.68
62978;BME280;49073;42.352;23.808;2023-10-09T00:25:49;95084.78;;;18.15;55.16
62978;BME280;49073;42.352;23.808;2023-10-09T00:29:07;95074.78;;;18.12;55.32
62978;BME280;49073;42.352;23.808;2023-10-09T00:32:07;95078.66;;;18.15;54.90
62978;BME280;49073;42.352;23.808;2023-10-09T00:35:22;95077.50;;;18.12;54.96
62978;BME280;49073;42.352;23.808;2023-10-09T00:38:42;95058.59;;;18.16;54.94
62978;BME280;49073;42.352;23.808;2023-10-09T00:41:49;95071.72;;;18.10;55.30
62978;BME280;49073;42.352;23.808;2023-10-09T00:44:50;95072.16;;;18.01;55.60
62978;BME280;49073;42.352;23.808;2023-10-09T00:47:53;95088.31;;;18.05;55.50
62978;BME280;49073;42.352;23.808;2023-10-09T00:50:59;95091.41;;;18.03;55.60
62978;BME280;49073;42.352;23.808;2023-10-09T00:54:02;95094.91;;;18.00;55.36
62978;BME280;49073;42.352;23.808;2023-10-09T00:57:14;95091.41;;;18.03;55.46
62978;BME280;49073;42.352;23.808;2023-10-09T01:00:16;95086.03;;;18.03;55.25
62978;BME280;49073;42.352;23.808;2023-10-09T01:03:40;95094.50;;;18.02;55.45
62978;BME280;49073;42.352;23.808;2023-10-09T01:06:44;95079.06;;;17.95;55.60
62978;BME280;49073;42.352;23.808;2023-10-09T01:09:45;95085.66;;;17.91;56.08
62978;BME280;49073;42.352;23.808;2023-10-09T01:12:46;95101.03;;;17.94;56.22
62978;BME280;49073;42.352;23.808;2023-10-09T01:15:56;95101.47;;;17.81;56.40
62978;BME280;49073;42.352;23.808;2023-10-09T01:18:57;95108.03;;;17.80;56.42
62978;BME280;49073;42.352;23.808;2023-10-09T01:21:58;95088.38;;;17.72;56.82
62978;BME280;49073;42.352;23.808;2023-10-09T01:25:05;95086.47;;;17.66;56.56
62978;BME280;49073;42.352;23.808;2023-10-09T01:28:06;95092.66;;;17.66;56.64
62978;BME280;49073;42.352;23.808;2023-10-09T01:31:07;95095.34;;;17.70;56.76
62978;BME280;49073;42.352;23.808;2023-10-09T01:34:09;95101.13;;;17.72;56.83
62978;BME280;49073;42.352;23.808;2023-10-09T01:37:14;95094.94;;;17.71;56.78
62978;BME280;49073;42.352;23.808;2023-10-09T01:40:21;95091.88;;;17.69;56.49
62978;BME280;49073;42.352;23.808;2023-10-09T01:43:37;95089.56;;;17.68;56.85
62978;BME280;49073;42.352;23.808;2023-10-09T01:46:39;95091.88;;;17.62;56.96
62978;BME280;49073;42.352;23.808;2023-10-09T01:49:42;95105.75;;;17.53;57.07
62978;BME280;49073;42.352;23.808;2023-10-09T01:52:44;95124.25;;;17.48;56.96
62978;BME280;49073;42.352;23.808;2023-10-09T01:55:44;95142.34;;;17.40;57.34
62978;BME280;49073;42.352;23.808;2023-10-09T01:58:46;95136.94;;;17.36;57.05
62978;BME280;49073;42.352;23.808;2023-10-09T02:01:47;95128.09;;;17.36;56.78
62978;BME280;49073;42.352;23.808;2023-10-09T02:04:48;95137.34;;;17.27;56.86
62978;BME280;49073;42.352;23.808;2023-10-09T02:07:48;95143.13;;;17.29;56.46
62978;BME280;49073;42.352;23.808;2023-10-09T02:10:52;95141.19;;;17.23;56.65
62978;BME280;49073;42.352;23.808;2023-10-09T02:13:56;95145.81;;;17.19;56.51
62978;BME280;49073;42.352;23.808;2023-10-09T02:17:01;95151.97;;;17.15;56.42
62978;BME280;49073;42.352;23.808;2023-10-09T02:20:18;95151.97;;;17.19;56.04
62978;BME280;49073;42.352;23.808;2023-10-09T02:23:30;95155.03;;;17.18;56.51
62978;BME280;49073;42.352;23.808;2023-10-09T02:26:39;95160.41;;;17.10;55.40
62978;BME280;49073;42.352;23.808;2023-10-09T02:29:40;95168.50;;;17.18;55.22
62978;BME280;49073;42.352;23.808;2023-10-09T02:32:43;95162.34;;;16.99;54.68
62978;BME280;49073;42.352;23.808;2023-10-09T02:35:45;95172.72;;;17.04;54.07
62978;BME280;49073;42.352;23.808;2023-10-09T02:38:45;95187.72;;;17.05;54.77
62978;BME280;49073;42.352;23.808;2023-10-09T02:41:50;95177.28;;;16.96;53.50
62978;BME280;49073;42.352;23.808;2023-10-09T02:44:51;95191.16;;;16.95;53.27
62978;BME280;49073;42.352;23.808;2023-10-09T02:47:51;95200.34;;;16.83;53.19
62978;BME280;49073;42.352;23.808;2023-10-09T02:50:55;95202.28;;;16.82;53.11
62978;BME280;49073;42.352;23.808;2023-10-09T02:54:00;95198.03;;;16.78;53.14
62978;BME280;49073;42.352;23.808;2023-10-09T02:57:07;95203.34;;;16.60;53.11
62978;BME280;49073;42.352;23.808;2023-10-09T03:00:09;95206.03;;;16.56;53.05
62978;BME280;49073;42.352;23.808;2023-10-09T03:03:09;95212.94;;;16.50;52.75
62978;BME280;49073;42.352;23.808;2023-10-09T03:06:10;95217.88;;;16.44;52.65
62978;BME280;49073;42.352;23.808;2023-10-09T03:09:12;95220.13;;;16.27;52.72
62978;BME280;49073;42.352;23.808;2023-10-09T03:12:19;95228.94;;;16.28;52.56
62978;BME280;49073;42.352;23.808;2023-10-09T03:15:26;95231.59;;;16.21;52.62
62978;BME280;49073;42.352;23.808;2023-10-09T03:18:30;95246.97;;;16.20;52.52
62978;BME280;49073;42.352;23.808;2023-10-09T03:21:31;95240.41;;;16.18;52.41
62978;BME280;49073;42.352;23.808;2023-10-09T03:24:32;95241.88;;;16.08;52.82
62978;BME280;49073;42.352;23.808;2023-10-09T03:27:32;95242.31;;;16.13;52.84
62978;BME280;49073;42.352;23.808;2023-10-09T03:30:34;95250.31;;;16.03;52.54
62978;BME280;49073;42.352;23.808;2023-10-09T03:33:35;95251.06;;;15.96;52.83
62978;BME280;49073;42.352;23.808;2023-10-09T03:36:36;95254.84;;;15.91;53.22
62978;BME280;49073;42.352;23.808;2023-10-09T03:39:40;95246.06;;;15.98;53.27
62978;BME280;49073;42.352;23.808;2023-10-09T03:42:47;95247.09;;;15.86;52.87
62978;BME280;49073;42.352;23.808;2023-10-09T03:45:48;95252.47;;;15.86;52.97
62978;BME280;49073;42.352;23.808;2023-10-09T03:48:53;95251.19;;;15.69;53.20
62978;BME280;49073;42.352;23.808;2023-10-09T03:51:56;95254.66;;;15.69;53.27
62978;BME280;49073;42.352;23.808;2023-10-09T03:54:59;95269.25;;;15.68;53.33
62978;BME280;49073;42.352;23.808;2023-10-09T03:58:02;95291.41;;;15.58;53.55
62978;BME280;49073;42.352;23.808;2023-10-09T04:01:07;95285.28;;;15.61;53.43
62978;BME280;49073;42.352;23.808;2023-10-09T04:04:09;95287.66;;;15.70;53.37
62978;BME280;49073;42.352;23.808;2023-10-09T04:07:10;95291.44;;;15.62;53.64
62978;BME280;49073;42.352;23.808;2023-10-09T04:10:11;95294.09;;;15.58;53.35
62978;BME280;49073;42.352;23.808;2023-10-09T04:13:33;95300.50;;;15.46;53.58
62978;BME280;49073;42.352;23.808;2023-10-09T04:16:34;95299.38;;;15.47;53.12
62978;BME280;49073;42.352;23.808;2023-10-09T04:19:35;95312.63;;;15.29;53.60
62978;BME280;49073;42.352;23.808;2023-10-09T04:22:48;95312.00;;;15.43;53.32
62978;BME280;49073;42.352;23.808;2023-10-09T04:25:51;95319.25;;;15.42;53.63
62978;BME280;49073;42.352;23.808;2023-10-09T04:28:53;95317.38;;;15.43;53.08
62978;BME280;49073;42.352;23.808;2023-10-09T04:31:55;95324.94;;;15.34;53.88
62978;BME280;49073;42.352;23.808;2023-10-09T04:34:56;95328.78;;;15.33;52.97
62978;BME280;49073;42.352;23.808;2023-10-09T04:38:17;95315.16;;;15.15;53.14
62978;BME280;49073;42.352;23.808;2023-10-09T04:41:17;95316.50;;;15.01;52.88
62978;BME280;49073;42.352;23.808;2023-10-09T04:44:28;95322.22;;;14.96;53.13
62978;BME280;49073;42.352;23.808;2023-10-09T04:47:36;95311.88;;;14.98;53.14
62978;BME280;49073;42.352;23.808;2023-10-09T04:50:49;95317.09;;;14.83;53.18
62978;BME280;49073;42.352;23.808;2023-10-09T04:54:08;95314.88;;;14.62;53.74
62978;BME280;49073;42.352;23.808;2023-10-09T04:57:15;95312.16;;;14.59;53.76
62978;BME280;49073;42.352;23.808;2023-10-09T05:00:18;95307.47;;;14.52;53.89
62978;BME280;49073;42.352;23.808;2023-10-09T05:03:28;95313.31;;;14.61;53.85
62978;BME280;49073;42.352;23.808;2023-10-09T05:06:29;95316.81;;;14.65;53.12
62978;BME280;49073;42.352;23.808;2023-10-09T05:09:55;95324.53;;;14.67;52.42
62978;BME280;49073;42.352;23.808;2023-10-09T05:12:56;95327.38;;;14.78;51.86
62978;BME280;49073;42.352;23.808;2023-10-09T05:15:59;95330.16;;;14.85;51.16
62978;BME280;49073;42.352;23.808;2023-10-09T05:19:00;95320.47;;;14.77;51.48
62978;BME280;49073;42.352;23.808;2023-10-09T05:22:03;95322.69;;;14.71;51.74
62978;BME280;49073;42.352;23.808;2023-10-09T05:25:17;95331.97;;;14.77;51.63
62978;BME280;49073;42.352;23.808;2023-10-09T05:28:37;95327.78;;;14.80;51.30
62978;BME280;49073;42.352;23.808;2023-10-09T05:31:52;95336.75;;;14.95;50.50
62978;BME280;49073;42.352;23.808;2023-10-09T05:35:06;95335.25;;;14.67;50.44
62978;BME280;49073;42.352;23.808;2023-10-09T05:38:16;95347.28;;;14.77;49.53
62978;BME280;49073;42.352;23.808;2023-10-09T05:41:24;95350.28;;;14.72;48.53
62978;BME280;49073;42.352;23.808;2023-10-09T05:44:43;95365.34;;;14.80;48.20
62978;BME280;49073;42.352;23.808;2023-10-09T05:48:16;95371.38;;;14.73;48.11
62978;BME280;49073;42.352;23.808;2023-10-09T05:51:16;95375.09;;;14.68;48.02
62978;BME280;49073;42.352;23.808;2023-10-09T05:54:40;95388.25;;;14.74;48.24
62978;BME280;49073;42.352;23.808;2023-10-09T05:58:15;95401.97;;;14.95;47.19
62978;BME280;49073;42.352;23.808;2023-10-09T06:01:34;95418.50;;;15.01;46.92
62978;BME280;49073;42.352;23.808;2023-10-09T06:04:55;95420.91;;;15.06;46.67
62978;BME280;49073;42.352;23.808;2023-10-09T06:07:55;95425.47;;;15.06;45.23
62978;BME280;49073;42.352;23.808;2023-10-09T06:11:07;95428.25;;;15.13;45.10
62978;BME280;49073;42.352;23.808;2023-10-09T06:14:27;95448.50;;;15.07;46.06
62978;BME280;49073;42.352;23.808;2023-10-09T06:17:28;95460.38;;;15.06;46.56
62978;BME280;49073;42.352;23.808;2023-10-09T06:20:43;95468.13;;;14.84;47.05
62978;BME280;49073;42.352;23.808;2023-10-09T06:24:02;95465.97;;;14.93;47.49
62978;BME280;49073;42.352;23.808;2023-10-09T06:27:15;95474.88;;;15.01;47.38
62978;BME280;49073;42.352;23.808;2023-10-09T06:30:26;95479.22;;;15.09;47.00
62978;BME280;49073;42.352;23.808;2023-10-09T06:33:27;95483.09;;;15.12;47.57
62978;BME280;49073;42.352;23.808;2023-10-09T06:36:36;95483.56;;;15.18;47.03
62978;BME280;49073;42.352;23.808;2023-10-09T06:39:46;95484.94;;;15.35;47.42
62978;BME280;49073;42.352;23.808;2023-10-09T06:42:55;95481.19;;;15.43;45.57
62978;BME280;49073;42.352;23.808;2023-10-09T06:45:57;95487.75;;;15.46;45.77
62978;BME280;49073;42.352;23.808;2023-10-09T06:49:16;95492.06;;;15.54;45.93
62978;BME280;49073;42.352;23.808;2023-10-09T06:52:29;95507.00;;;15.51;45.23
62978;BME280;49073;42.352;23.808;2023-10-09T06:55:49;95497.75;;;15.49;46.06
62978;BME280;49073;42.352;23.808;2023-10-09T06:58:51;95514.78;;;15.60;45.09
62978;BME280;49073;42.352;23.808;2023-10-09T07:01:55;95514.38;;;15.58;46.10
62978;BME280;49073;42.352;23.808;2023-10-09T07:05:07;95512.31;;;15.78;45.70
62978;BME280;49073;42.352;23.808;2023-10-09T07:08:11;95504.88;;;15.95;46.23
62978;BME280;49073;42.352;23.808;2023-10-09T07:11:34;95509.50;;;15.98;46.09
62978;BME280;49073;42.352;23.808;2023-10-09T07:14:41;95509.44;;;15.91;45.12
62978;BME280;49073;42.352;23.808;2023-10-09T07:17:41;95499.25;;;15.77;45.16
62978;BME280;49073;42.352;23.808;2023-10-09T07:20:42;95503.19;;;15.86;45.82
62978;BME280;49073;42.352;23.808;2023-10-09T07:23:52;95500.09;;;15.84;46.28
62978;BME280;49073;42.352;23.808;2023-10-09T07:26:57;95508.88;;;15.78;44.32
62978;BME280;49073;42.352;23.808;2023-10-09T07:30:07;95500.66;;;15.97;44.62
62978;BME280;49073;42.352;23.808;2023-10-09T07:33:28;95497.97;;;15.97;43.62
62978;BME280;49073;42.352;23.808;2023-10-09T07:36:51;95493.13;;;16.14;43.18
62978;BME280;49073;42.352;23.808;2023-10-09T07:39:57;95490.59;;;16.28;41.49
62978;BME280;49073;42.352;23.808;2023-10-09T07:42:57;95476.44;;;16.35;42.58
62978;BME280;49073;42.352;23.808;2023-10-09T07:46:06;95484.16;;;16.37;41.57
62978;BME280;49073;42.352;23.808;2023-10-09T07:49:25;95474.94;;;16.38;44.76
62978;BME280;49073;42.352;23.808;2023-10-09T07:52:26;95478.09;;;16.47;44.74
62978;BME280;49073;42.352;23.808;2023-10-09T07:55:27;95470.88;;;16.58;41.21
62978;BME280;49073;42.352;23.808;2023-10-09T07:58:40;95476.75;;;16.71;41.44
62978;BME280;49073;42.352;23.808;2023-10-09T08:01:49;95469.72;;;16.56;37.87
62978;BME280;49073;42.352;23.808;2023-10-09T08:04:53;95475.41;;;16.47;37.16
62978;BME280;49073;42.352;23.808;2023-10-09T08:07:53;95461.56;;;16.49;38.44
62978;BME280;49073;42.352;23.808;2023-10-09T08:10:59;95469.38;;;16.61;37.27
62978;BME280;49073;42.352;23.808;2023-10-09T08:14:18;95460.25;;;16.77;39.81
62978;BME280;49073;42.352;23.808;2023-10-09T08:17:33;95462.34;;;16.98;42.62
62978;BME280;49073;42.352;23.808;2023-10-09T08:20:37;95463.47;;;16.97;42.09
62978;BME280;49073;42.352;23.808;2023-10-09T08:23:56;95454.34;;;17.12;42.04
62978;BME280;49073;42.352;23.808;2023-10-09T08:27:05;95464.81;;;17.32;41.23
62978;BME280;49073;42.352;23.808;2023-10-09T08:30:25;95461.00;;;17.37;40.83
62978;BME280;49073;42.352;23.808;2023-10-09T08:33:26;95455.22;;;17.35;40.72
62978;BME280;49073;42.352;23.808;2023-10-09T08:36:28;95456.41;;;17.41;41.03
62978;BME280;49073;42.352;23.808;2023-10-09T08:39:28;95459.59;;;17.68;40.06
62978;BME280;49073;42.352;23.808;2023-10-09T08:42:33;95453.47;;;17.79;40.81
62978;BME280;49073;42.352;23.808;2023-10-09T08:45:39;95446.53;;;17.81;39.87
62978;BME280;49073;42.352;23.808;2023-10-09T08:48:40;95457.00;;;17.97;39.08
62978;BME280;49073;42.352;23.808;2023-10-09T08:51:40;95456.19;;;17.89;38.55
62978;BME280;49073;42.352;23.808;2023-10-09T08:54:43;95452.34;;;17.98;38.84
62978;BME280;49073;42.352;23.808;2023-10-09T08:57:44;95437.00;;;18.13;38.17
62978;BME280;49073;42.352;23.808;2023-10-09T09:00:47;95439.31;;;18.22;36.18
62978;BME280;49073;42.352;23.808;2023-10-09T09:03:49;95436.22;;;18.05;36.37
62978;BME280;49073;42.352;23.808;2023-10-09T09:06:50;95427.34;;;18.08;36.35
62978;BME280;49073;42.352;23.808;2023-10-09T09:09:55;95425.84;;;18.25;35.79
62978;BME280;49073;42.352;23.808;2023-10-09T09:12:57;95430.84;;;18.45;36.16
62978;BME280;49073;42.352;23.808;2023-10-09T09:16:04;95421.56;;;18.71;36.15
62978;BME280;49073;42.352;23.808;2023-10-09T09:19:05;95423.06;;;19.12;37.08
62978;BME280;49073;42.352;23.808;2023-10-09T09:22:09;95411.88;;;19.17;36.27
62978;BME280;49073;42.352;23.808;2023-10-09T09:25:13;95414.63;;;18.88;35.31
62978;BME280;49073;42.352;23.808;2023-10-09T09:28:14;95412.31;;;19.01;35.79
62978;BME280;49073;42.352;23.808;2023-10-09T09:31:21;95411.84;;;19.21;34.97
62978;BME280;49073;42.352;23.808;2023-10-09T09:34:22;95410.22;;;19.49;35.37
62978;BME280;49073;42.352;23.808;2023-10-09T09:37:29;95404.31;;;19.69;34.14
62978;BME280;49073;42.352;23.808;2023-10-09T09:40:39;95397.38;;;19.64;33.96
62978;BME280;49073;42.352;23.808;2023-10-09T09:43:41;95405.03;;;19.80;34.29
62978;BME280;49073;42.352;23.808;2023-10-09T09:46:46;95395.69;;;19.88;34.54
62978;BME280;49073;42.352;23.808;2023-10-09T09:49:50;95402.59;;;20.04;34.27
62978;BME280;49073;42.352;23.808;2023-10-09T09:52:53;95389.03;;;20.11;32.56
62978;BME280;49073;42.352;23.808;2023-10-09T09:55:54;95381.63;;;20.15;32.22
62978;BME280;49073;42.352;23.808;2023-10-09T09:59:02;95374.53;;;20.32;31.34
62978;BME280;49073;42.352;23.808;2023-10-09T10:02:03;95372.16;;;20.42;30.97
62978;BME280;49073;42.352;23.808;2023-10-09T10:05:11;95372.78;;;20.57;30.44
62978;BME280;49073;42.352;23.808;2023-10-09T10:08:16;95366.75;;;20.42;30.20
62978;BME280;49073;42.352;23.808;2023-10-09T10:11:42;95365.72;;;20.25;30.04
62978;BME280;49073;42.352;23.808;2023-10-09T10:14:58;95358.91;;;20.02;30.37
62978;BME280;49073;42.352;23.808;2023-10-09T10:18:15;95347.03;;;19.92;30.63
62978;BME280;49073;42.352;23.808;2023-10-09T10:21:19;95347.63;;;20.14;30.82
62978;BME280;49073;42.352;23.808;2023-10-09T10:27:33;95332.66;;;20.44;30.71
62978;BME280;49073;42.352;23.808;2023-10-09T10:30:48;95324.25;;;20.73;30.01
62978;BME280;49073;42.352;23.808;2023-10-09T10:36:58;95323.72;;;20.89;30.05
62978;BME280;49073;42.352;23.808;2023-10-09T10:39:59;95306.03;;;20.77;31.03
62978;BME280;49073;42.352;23.808;2023-10-09T10:43:01;95306.78;;;21.13;30.54
62978;BME280;49073;42.352;23.808;2023-10-09T10:46:21;95305.19;;;21.46;29.28
62978;BME280;49073;42.352;23.808;2023-10-09T10:49:30;95306.63;;;21.27;28.92
62978;BME280;49073;42.352;23.808;2023-10-09T10:52:37;95292.38;;;21.19;29.39
62978;BME280;49073;42.352;23.808;2023-10-09T10:58:57;95288.91;;;21.19;29.33
62978;BME280;49073;42.352;23.808;2023-10-09T11:02:01;95280.38;;;21.20;29.44
62978;BME280;49073;42.352;23.808;2023-10-09T11:05:01;95265.91;;;21.31;29.26
62978;BME280;49073;42.352;23.808;2023-10-09T11:08:14;95259.97;;;21.12;29.31
62978;BME280;49073;42.352;23.808;2023-10-09T11:11:15;95263.97;;;21.00;28.93
62978;BME280;49073;42.352;23.808;2023-10-09T11:14:16;95252.50;;;21.20;29.83
62978;BME280;49073;42.352;23.808;2023-10-09T11:20:26;95245.53;;;21.46;28.11
62978;BME280;49073;42.352;23.808;2023-10-09T11:23:32;95244.47;;;21.40;28.79
62978;BME280;49073;42.352;23.808;2023-10-09T11:29:48;95238.22;;;21.43;29.05
62978;BME280;49073;42.352;23.808;2023-10-09T11:33:04;95239.13;;;21.64;29.10
62978;BME280;49073;42.352;23.808;2023-10-09T11:36:06;95231.41;;;21.86;28.44
62978;BME280;49073;42.352;23.808;2023-10-09T11:39:26;95229.22;;;21.77;27.84
62978;BME280;49073;42.352;23.808;2023-10-09T11:42:35;95226.25;;;21.68;28.15
62978;BME280;49073;42.352;23.808;2023-10-09T11:45:36;95223.81;;;21.74;27.84
62978;BME280;49073;42.352;23.808;2023-10-09T11:48:38;95209.03;;;21.78;27.74
62978;BME280;49073;42.352;23.808;2023-10-09T11:52:07;95213.28;;;21.79;27.22
62978;BME280;49073;42.352;23.808;2023-10-09T11:55:08;95198.22;;;21.75;27.55
62978;BME280;49073;42.352;23.808;2023-10-09T11:58:20;95176.66;;;21.68;27.95
62978;BME280;49073;42.352;23.808;2023-10-09T12:01:24;95159.16;;;21.72;26.94
62978;BME280;49073;42.352;23.808;2023-10-09T12:04:27;95167.03;;;21.87;27.78
62978;BME280;49073;42.352;23.808;2023-10-09T12:07:30;95158.97;;;22.03;28.35
62978;BME280;49073;42.352;23.808;2023-10-09T12:10:31;95158.63;;;22.01;28.41
62978;BME280;49073;42.352;23.808;2023-10-09T12:13:31;95160.44;;;21.88;28.17
62978;BME280;49073;42.352;23.808;2023-10-09T12:16:32;95161.69;;;22.03;28.54
62978;BME280;49073;42.352;23.808;2023-10-09T12:19:37;95158.44;;;22.12;27.39
62978;BME280;49073;42.352;23.808;2023-10-09T12:22:39;95152.94;;;21.96;27.12
62978;BME280;49073;42.352;23.808;2023-10-09T12:25:41;95154.09;;;21.74;28.08
62978;BME280;49073;42.352;23.808;2023-10-09T12:28:45;95155.69;;;21.92;29.83
62978;BME280;49073;42.352;23.808;2023-10-09T12:31:50;95147.78;;;21.81;29.31
62978;BME280;49073;42.352;23.808;2023-10-09T12:34:58;95136.50;;;21.83;28.20
62978;BME280;49073;42.352;23.808;2023-10-09T12:37:58;95138.78;;;22.04;29.25
62978;BME280;49073;42.352;23.808;2023-10-09T12:41:03;95145.53;;;21.96;29.13
62978;BME280;49073;42.352;23.808;2023-10-09T12:44:08;95146.09;;;21.87;29.08
62978;BME280;49073;42.352;23.808;2023-10-09T12:47:14;95129.78;;;21.67;27.34
62978;BME280;49073;42.352;23.808;2023-10-09T12:50:15;95123.47;;;21.74;28.19
62978;BME280;49073;42.352;23.808;2023-10-09T12:53:16;95130.53;;;21.44;27.87
62978;BME280;49073;42.352;23.808;2023-10-09T12:56:18;95116.66;;;21.86;28.55
62978;BME280;49073;42.352;23.808;2023-10-09T12:59:19;95119.19;;;21.97;28.62
62978;BME280;49073;42.352;23.808;2023-10-09T13:02:21;95118.94;;;21.67;29.45
62978;BME280;49073;42.352;23.808;2023-10-09T13:05:30;95119.25;;;21.93;30.79
62978;BME280;49073;42.352;23.808;2023-10-09T13:08:31;95114.03;;;21.82;30.88
62978;BME280;49073;42.352;23.808;2023-10-09T13:11:32;95109.56;;;21.72;29.83
62978;BME280;49073;42.352;23.808;2023-10-09T13:14:32;95098.44;;;21.62;30.04
62978;BME280;49073;42.352;23.808;2023-10-09T13:17:36;95099.63;;;21.61;29.83
62978;BME280;49073;42.352;23.808;2023-10-09T13:20:36;95091.16;;;21.59;30.81
62978;BME280;49073;42.352;23.808;2023-10-09T13:23:37;95087.66;;;21.39;31.79
62978;BME280;49073;42.352;23.808;2023-10-09T13:26:43;95089.34;;;21.29;31.96
62978;BME280;49073;42.352;23.808;2023-10-09T13:29:51;95090.72;;;21.41;32.22
62978;BME280;49073;42.352;23.808;2023-10-09T13:32:52;95078.59;;;21.25;32.45
62978;BME280;49073;42.352;23.808;2023-10-09T13:35:53;95083.97;;;21.01;32.56
62978;BME280;49073;42.352;23.808;2023-10-09T13:38:54;95079.91;;;20.89;32.38
62978;BME280;49073;42.352;23.808;2023-10-09T13:41:57;95080.06;;;20.78;33.73
62978;BME280;49073;42.352;23.808;2023-10-09T13:45:06;95076.84;;;20.87;33.79
62978;BME280;49073;42.352;23.808;2023-10-09T13:48:16;95067.44;;;20.68;34.46
62978;BME280;49073;42.352;23.808;2023-10-09T13:51:18;95065.97;;;20.60;33.88
62978;BME280;49073;42.352;23.808;2023-10-09T13:54:19;95062.47;;;20.63;33.71
62978;BME280;49073;42.352;23.808;2023-10-09T13:57:43;95063.56;;;20.42;34.12
62978;BME280;49073;42.352;23.808;2023-10-09T14:00:45;95059.22;;;20.48;34.83
62978;BME280;49073;42.352;23.808;2023-10-09T14:03:48;95062.84;;;20.38;35.31
62978;BME280;49073;42.352;23.808;2023-10-09T14:06:50;95069.47;;;20.33;34.27
62978;BME280;49073;42.352;23.808;2023-10-09T14:09:57;95066.31;;;20.07;35.05
62978;BME280;49073;42.352;23.808;2023-10-09T14:13:07;95060.63;;;20.29;35.17
62978;BME280;49073;42.352;23.808;2023-10-09T14:16:12;95058.63;;;20.33;34.36
62978;BME280;49073;42.352;23.808;2023-10-09T14:19:24;95060.94;;;20.34;34.51
62978;BME280;49073;42.352;23.808;2023-10-09T14:22:25;95063.44;;;20.22;35.40
62978;BME280;49073;42.352;23.808;2023-10-09T14:25:28;95063.91;;;20.13;35.45
62978;BME280;49073;42.352;23.808;2023-10-09T14:28:30;95067.13;;;20.04;35.45
62978;BME280;49073;42.352;23.808;2023-10-09T14:31:30;95068.38;;;19.96;36.16
62978;BME280;49073;42.352;23.808;2023-10-09T14:34:31;95073.41;;;19.94;35.98
62978;BME280;49073;42.352;23.808;2023-10-09T14:37:36;95068.97;;;19.72;36.25
62978;BME280;49073;42.352;23.808;2023-10-09T14:40:43;95067.41;;;19.75;36.38
62978;BME280;49073;42.352;23.808;2023-10-09T14:43:44;95069.41;;;19.67;36.39
62978;BME280;49073;42.352;23.808;2023-10-09T14:46:44;95050.81;;;19.34;36.66
62978;BME280;49073;42.352;23.808;2023-10-09T14:49:48;95057.19;;;19.13;37.48
62978;BME280;49073;42.352;23.808;2023-10-09T14:52:50;95053.97;;;19.29;37.57
62978;BME280;49073;42.352;23.808;2023-10-09T14:55:57;95059.13;;;19.13;37.41
62978;BME280;49073;42.352;23.808;2023-10-09T14:59:00;95069.94;;;19.16;37.12
62978;BME280;49073;42.352;23.808;2023-10-09T15:02:01;95059.66;;;19.39;37.34
62978;BME280;49073;42.352;23.808;2023-10-09T15:05:04;95069.31;;;19.40;37.61
62978;BME280;49073;42.352;23.808;2023-10-09T15:08:05;95066.66;;;19.36;37.20
62978;BME280;49073;42.352;23.808;2023-10-09T15:11:11;95062.22;;;19.15;37.50
62978;BME280;49073;42.352;23.808;2023-10-09T15:14:11;95062.28;;;19.08;38.09
62978;BME280;49073;42.352;23.808;2023-10-09T15:17:14;95056.00;;;19.18;37.89
62978;BME280;49073;42.352;23.808;2023-10-09T15:20:16;95067.31;;;19.02;37.33
62978;BME280;49073;42.352;23.808;2023-10-09T15:23:17;95058.78;;;19.07;38.85
62978;BME280;49073;42.352;23.808;2023-10-09T15:26:20;95056.03;;;19.14;37.91
62978;BME280;49073;42.352;23.808;2023-10-09T15:29:21;95057.31;;;19.02;38.44
62978;BME280;49073;42.352;23.808;2023-10-09T15:32:28;95054.94;;;19.08;40.05
62978;BME280;49073;42.352;23.808;2023-10-09T15:35:32;95051.84;;;19.06;40.59
62978;BME280;49073;42.352;23.808;2023-10-09T15:38:35;95051.53;;;19.00;41.10
62978;BME280;49073;42.352;23.808;2023-10-09T15:41:36;95053.53;;;18.89;41.19
62978;BME280;49073;42.352;23.808;2023-10-09T15:44:39;95066.78;;;18.65;41.50
62978;BME280;49073;42.352;23.808;2023-10-09T15:47:41;95061.41;;;18.65;42.35
62978;BME280;49073;42.352;23.808;2023-10-09T15:50:45;95063.78;;;18.52;41.91
62978;BME280;49073;42.352;23.808;2023-10-09T15:53:48;95057.00;;;18.29;43.04
62978;BME280;49073;42.352;23.808;2023-10-09T15:56:50;95057.50;;;18.06;43.00
62978;BME280;49073;42.352;23.808;2023-10-09T15:59:51;95064.88;;;17.80;44.33
62978;BME280;49073;42.352;23.808;2023-10-09T16:02:51;95073.41;;;17.64;43.69
62978;BME280;49073;42.352;23.808;2023-10-09T16:05:53;95060.38;;;17.34;43.78
62978;BME280;49073;42.352;23.808;2023-10-09T16:08:53;95076.16;;;17.24;44.23
62978;BME280;49073;42.352;23.808;2023-10-09T16:11:54;95071.19;;;17.08;44.22
62978;BME280;49073;42.352;23.808;2023-10-09T16:14:55;95068.84;;;17.07;44.69
62978;BME280;49073;42.352;23.808;2023-10-09T16:17:56;95068.84;;;16.92;44.87
62978;BME280;49073;42.352;23.808;2023-10-09T16:21:06;95070.38;;;16.86;45.21
62978;BME280;49073;42.352;23.808;2023-10-09T16:24:08;95074.56;;;16.62;45.17
62978;BME280;49073;42.352;23.808;2023-10-09T16:27:15;95078.69;;;16.16;46.31